Latest Weather Observations for Scotts Peak

IDT60801

Issued at 8:05 pm EST Monday 28 July 2014 (issued every 30 minutes, with the page automatically refreshed every 10 minutes)

About weather observations | Map of weather stations | Latest weather observations for TAS | Other Formats
Station Details ID: 097083 Name: SCOTTS PEAK DAM Lat: -43.04 Lon: 146.27 Height: 408.0 m
Data from the previous 72 hours. | See also: Recent months at Scotts Peak
Date/Time
EST
Temp
°C
App
Temp
°C
Dew
Point
Rel
Hum
%
Delta-T
°C
Wind Press
QNH
hPa
Press
MSL
hPa
Rain
since 9 am
mm
Dir
 
Spd
km/h
Gust
km/h
Spd
kts
Gust
kts
28/08:01pm 7.3 -1.6 6.9 97 0.2 NNW 43 61 23 33 - - 9.0
28/08:00pm 7.3 -1.8 6.9 97 0.2 NNW 44 61 24 33 - - 9.0
28/07:30pm 7.5 -3.7 7.4 99 0.0 NNW 56 69 30 37 - - 9.0
28/07:00pm 7.4 -2.3 7.3 99 0.0 NNW 48 72 26 39 - - 8.2
28/06:54pm 7.3 -1.1 7.2 99 0.0 NNW 41 63 22 34 - - 8.2
28/06:41pm 7.2 -0.2 6.9 98 0.1 N 35 41 19 22 - - 8.0
28/06:30pm 7.3 -1.6 6.9 97 0.2 NW 43 54 23 29 - - 8.0
28/06:01pm 6.7 -1.9 6.6 99 0.0 NNW 41 59 22 32 - - 8.0
28/06:00pm 6.7 -1.5 6.6 99 0.0 NNW 39 54 21 29 - - 7.8
28/05:30pm 7.1 -2.0 7.0 99 0.0 NNW 44 65 24 35 - - 5.4
28/05:26pm 7.1 -1.0 7.0 99 0.0 NNW 39 57 21 31 - - 5.0
28/05:00pm 7.1 -0.2 7.0 99 0.0 NNW 35 48 19 26 - - 4.4
28/04:30pm 7.2 -2.2 7.1 99 0.0 NNW 46 65 25 35 - - 4.2
28/04:18pm 7.1 -1.8 7.0 99 0.0 NNW 43 74 23 40 - - 4.0
28/04:11pm 7.0 0.2 6.9 99 0.0 NNW 32 50 17 27 - - 4.0
28/04:00pm 6.9 0.0 6.6 98 0.1 NNW 32 44 17 24 - - 3.4
28/03:43pm 7.1 -1.0 6.8 98 0.1 NNW 39 57 21 31 - - 2.4
28/03:30pm 7.2 -1.9 6.6 96 0.3 NNW 44 57 24 31 - - 1.2
28/03:06pm 7.6 -4.0 6.7 94 0.4 NNW 57 76 31 41 - - 0.4
28/03:00pm 7.7 -4.3 6.5 92 0.6 NNW 59 70 32 38 - - 0.2
28/02:30pm 8.9 -1.8 6.3 84 1.2 NNW 52 72 28 39 - - 0.2
28/02:06pm 8.6 -0.5 6.7 88 0.9 NW 44 69 24 37 - - 0.0
28/02:00pm 8.6 1.0 7.5 93 0.5 NW 37 46 20 25 - - 0.0
28/01:57pm 8.3 0.2 7.1 92 0.6 NW 39 46 21 25 - - 0.0
28/01:30pm 9.5 -2.2 6.0 79 1.6 NNW 57 80 31 43 - - 0.0
28/01:29pm 9.4 -2.4 5.8 78 1.7 NNW 57 80 31 43 - - 0.0
28/01:00pm 9.9 0.2 5.7 75 2.0 NW 46 63 25 34 - - 0.0
28/12:30pm 9.7 -0.5 6.8 82 1.4 NNW 50 67 27 36 - - 0.0
28/12:03pm 9.2 -2.0 6.1 81 1.5 NNW 54 72 29 39 - - 0.0
28/12:00pm 9.6 -1.2 5.8 77 1.8 NNW 52 65 28 35 - - 0.0
28/11:30am 10.7 0.8 6.8 77 1.9 NW 48 57 26 31 - - 0.0
28/11:10am 10.6 0.3 6.4 75 2.0 NNW 50 69 27 37 - - 0.0
28/11:00am 10.4 1.3 6.9 79 1.7 NNW 44 59 24 32 - - 0.0
28/10:33am 9.8 0.8 6.2 78 1.7 NW 43 65 23 35 - - 0.0
28/10:30am 10.1 2.0 7.0 81 1.5 NW 39 52 21 28 - - 0.0
28/10:16am 10.3 2.2 6.8 79 1.7 NW 39 59 21 32 - - 0.0
28/10:00am 9.3 2.5 7.6 89 0.8 NW 33 39 18 21 - - 0.0
28/09:30am 8.7 0.0 6.0 83 1.3 NW 41 59 22 32 - - 0.0
28/09:28am 8.4 -0.4 5.7 83 1.3 NW 41 59 22 32 - - 0.0
28/09:00am 8.5 -0.5 6.3 86 1.0 NW 43 57 23 31 - - 4.6
28/08:30am 8.3 -0.8 6.9 91 0.7 NW 44 65 24 35 - - 4.6
28/08:17am 8.0 -0.8 7.1 94 0.4 NW 43 61 23 33 - - 4.6
28/08:00am 7.7 -2.2 6.6 93 0.5 WNW 48 57 26 31 - - 4.2
28/07:45am 7.9 -1.0 6.7 92 0.6 NW 43 61 23 33 - - 4.2
28/07:30am 8.3 0.3 7.4 94 0.4 NNW 39 46 21 25 - - 3.8
28/07:08am 8.0 -0.1 6.9 93 0.5 NNW 39 57 21 31 - - 3.8
28/07:00am 8.2 -0.3 6.8 91 0.7 NNW 41 52 22 28 - - 3.8
28/06:32am 8.7 -1.2 4.9 77 1.7 NW 46 65 25 35 - - 3.8
28/06:30am 8.9 -1.7 4.9 76 1.8 NW 50 65 27 35 - - 3.8
28/06:00am 9.2 -1.2 4.4 72 2.2 NW 48 57 26 31 - - 3.8
28/05:30am 8.9 -2.1 5.1 77 1.7 NW 52 65 28 35 - - 3.8
28/05:02am 9.3 -1.0 6.4 82 1.4 NW 50 69 27 37 - - 3.8
28/05:00am 9.4 -0.8 6.8 84 1.2 NW 50 65 27 35 - - 3.8
28/04:55am 9.2 -0.2 7.0 86 1.1 NW 46 65 25 35 - - 3.8
28/04:54am 9.3 0.4 6.9 85 1.2 NW 43 52 23 28 - - 3.8
28/04:30am 9.7 -3.6 7.5 86 1.1 WNW 67 87 36 47 - - 3.8
28/04:14am 9.5 -4.2 8.1 91 0.7 NW 70 93 38 50 - - 3.8
28/04:13am 9.5 -3.7 8.1 91 0.7 NW 67 78 36 42 - - 3.8
28/04:11am 9.8 0.7 8.6 92 0.6 NW 46 80 25 43 - - 3.8
28/04:00am 9.3 -0.9 8.5 95 0.4 NW 52 69 28 37 - - 3.8
28/03:37am 9.2 -1.4 8.6 96 0.3 NNW 54 72 29 39 - - 3.6
28/03:30am 9.3 -2.6 8.8 97 0.3 NNW 61 74 33 40 - - 3.6
28/03:12am 9.2 -4.4 8.7 97 0.2 NNW 70 89 38 48 - - 3.6
28/03:11am 9.2 -5.5 8.7 97 0.2 NNW 76 89 41 48 - - 3.6
28/03:04am 9.1 -1.8 8.8 98 0.1 NNW 56 78 30 42 - - 3.6
28/03:00am 9.1 -1.4 8.8 98 0.1 NNW 54 69 29 37 - - 3.4
28/02:30am 8.9 -0.2 8.5 97 0.2 NNW 46 61 25 33 - - 2.8
28/02:24am 8.9 0.8 8.5 97 0.2 NNW 41 61 22 33 - - 2.8
28/02:00am 9.0 -0.2 8.1 94 0.4 NNW 46 61 25 33 - - 1.8
28/01:30am 8.8 0.6 8.0 95 0.4 NNW 41 52 22 28 - - 1.8
28/01:01am 8.7 1.6 8.1 96 0.3 NNW 35 57 19 31 - - 1.8
28/01:00am 8.7 1.6 8.1 96 0.3 NNW 35 52 19 28 - - 1.8
28/12:48am 8.7 1.6 8.1 96 0.3 NNW 35 54 19 29 - - 1.8
28/12:30am 8.5 1.1 8.2 98 0.1 N 37 52 20 28 - - 1.8
28/12:10am 8.3 1.2 8.0 98 0.1 NNW 35 54 19 29 - - 1.8
28/12:00am 8.4 1.0 8.3 99 0.0 NNW 37 52 20 28 - - 1.8
 
Date/Time
EST
Temp
°C
App
Temp
°C
Dew
Point
Rel
Hum
%
Delta-T
°C
Wind Press
QNH
hPa
Press
MSL
hPa
Rain
since 9 am
mm
Dir
 
Spd
km/h
Gust
km/h
Spd
kts
Gust
kts
27/11:30pm 8.1 1.5 7.8 98 0.1 N 32 39 17 21 - - 1.6
27/11:00pm 8.2 1.4 7.6 96 0.3 NNW 33 48 18 26 - - 1.0
27/10:30pm 8.4 0.0 7.2 92 0.6 NNW 41 63 22 34 - - 0.8
27/10:00pm 9.0 1.6 6.6 85 1.1 NNW 35 57 19 31 - - 0.6
27/09:30pm 8.9 0.0 7.0 88 0.9 NNW 43 69 23 37 - - 0.6
27/09:11pm 8.7 1.5 7.5 92 0.6 NNW 35 54 19 29 - - 0.6
27/09:00pm 8.6 1.4 7.5 93 0.5 NNW 35 43 19 23 - - 0.6
27/08:30pm 8.7 0.4 7.8 94 0.4 NNW 41 59 22 32 - - 0.6
27/08:00pm 9.2 2.4 6.8 85 1.1 NNW 32 50 17 27 - - 0.2
27/07:59pm 9.3 2.5 6.9 85 1.2 NNW 32 50 17 27 - - 0.2
27/07:30pm 8.9 3.3 7.2 89 0.8 NNW 26 33 14 18 - - 0.2
27/07:15pm 8.9 2.9 7.2 89 0.8 NNW 28 46 15 25 - - 0.2
27/07:00pm 8.9 3.0 7.4 90 0.7 NNW 28 39 15 21 - - 0.2
27/06:59pm 8.9 2.6 7.4 90 0.7 NNW 30 48 16 26 - - 0.2
27/06:30pm 9.1 1.4 6.9 86 1.1 NNW 37 54 20 29 - - 0.2
27/06:28pm 9.2 1.9 7.0 86 1.1 NNW 35 54 19 29 - - 0.2
27/06:00pm 8.8 2.8 6.9 88 0.9 NNW 28 41 15 22 - - 0.2
27/05:30pm 8.6 3.4 7.2 91 0.7 NNW 24 37 13 20 - - 0.2
27/05:00pm 8.4 3.6 7.3 93 0.5 N 22 28 12 15 - - 0.2
27/04:30pm 8.6 1.7 7.2 91 0.7 NNW 33 44 18 24 - - 0.2
27/04:21pm 9.1 1.4 6.9 86 1.1 NNW 37 56 20 30 - - 0.2
27/04:00pm 9.3 1.1 6.6 83 1.3 N 39 54 21 29 - - 0.2
27/03:31pm 9.2 1.8 6.6 84 1.2 NNW 35 54 19 29 - - 0.0
27/03:30pm 9.2 1.8 6.6 84 1.2 NNW 35 48 19 26 - - 0.0
27/03:15pm 9.1 1.4 7.2 88 0.9 NNW 37 56 20 30 - - 0.0
27/03:00pm 8.6 2.7 7.5 93 0.5 NNW 28 41 15 22 - - 0.0
27/02:30pm 9.0 2.3 7.5 90 0.7 NNW 32 39 17 21 - - 0.0
27/02:00pm 9.3 1.9 6.9 85 1.2 NNW 35 46 19 25 - - 0.0
27/01:45pm 9.1 2.3 6.9 86 1.1 NNW 32 52 17 28 - - 0.0
27/01:30pm 9.2 3.2 7.2 87 1.0 NNW 28 39 15 21 - - 0.0
27/01:00pm 9.0 2.9 6.8 86 1.0 NNW 28 43 15 23 - - 0.0
27/12:30pm 9.8 3.8 7.1 83 1.3 N 28 33 15 18 - - 0.0
27/12:00pm 9.7 5.2 7.0 83 1.3 N 20 28 11 15 - - 0.0
27/11:30am 9.6 4.1 7.4 86 1.1 N 26 32 14 17 - - 0.0
27/11:00am 9.5 3.7 7.8 89 0.8 N 28 33 15 18 - - 0.0
27/10:30am 8.8 3.3 7.7 93 0.5 N 26 32 14 17 - - 0.0
27/10:00am 8.0 2.9 7.6 97 0.2 N 24 32 13 17 - - 0.0
27/09:30am 7.6 3.8 7.5 99 0.0 N 17 24 9 13 - - 0.0
27/09:00am 7.3 1.3 7.2 99 0.0 N 28 35 15 19 - - 0.4
27/08:30am 7.4 2.2 7.3 99 0.0 N 24 33 13 18 - - 0.4
27/08:00am 7.0 4.9 6.7 98 0.1 WNW 7 13 4 7 - - 0.2
27/07:30am 6.9 5.0 6.8 99 0.0 NNW 6 9 3 5 - - 0.2
27/07:00am 6.7 4.8 6.6 99 0.0 WNW 6 13 3 7 - - 0.2
27/06:30am 6.3 4.7 6.2 99 0.0 WNW 4 11 2 6 - - 0.2
27/06:00am 6.5 4.9 6.4 99 0.0 NNW 4 7 2 4 - - 0.2
27/05:30am 6.0 3.7 5.9 99 0.0 NNW 7 9 4 5 - - 0.2
27/05:00am 5.2 2.0 5.1 99 0.0 NNW 11 13 6 7 - - 0.0
27/04:30am 5.9 3.2 5.8 99 0.0 N 9 13 5 7 - - 0.0
27/04:00am 6.4 3.5 6.3 99 0.0 N 11 15 6 8 - - 0.0
27/03:30am 6.6 3.7 6.5 99 0.0 N 11 15 6 8 - - 0.0
27/03:00am 6.2 4.0 6.1 99 0.0 N 7 13 4 7 - - 0.0
27/02:30am 6.3 4.3 6.2 99 0.0 N 6 7 3 4 - - 0.0
27/02:00am 5.9 3.8 5.8 99 0.0 NW 6 6 3 3 - - 0.0
27/01:30am 6.1 3.5 6.0 99 0.0 N 9 11 5 6 - - 0.0
27/01:00am 5.9 3.2 5.8 99 0.0 N 9 11 5 6 - - 0.0
27/12:30am 5.6 2.9 5.5 99 0.0 NW 9 11 5 6 - - 0.0
27/12:00am 6.0 2.2 5.9 99 0.0 N 15 19 8 10 - - 0.0
 
Date/Time
EST
Temp
°C
App
Temp
°C
Dew
Point
Rel
Hum
%
Delta-T
°C
Wind Press
QNH
hPa
Press
MSL
hPa
Rain
since 9 am
mm
Dir
 
Spd
km/h
Gust
km/h
Spd
kts
Gust
kts
26/11:30pm 5.4 1.9 5.3 99 0.0 N 13 15 7 8 - - 0.0
26/11:00pm 5.5 2.3 5.2 98 0.1 NNW 11 13 6 7 - - 0.0
26/10:30pm 5.9 2.5 5.8 99 0.0 NNW 13 13 7 7 - - 0.0
26/10:00pm 5.8 2.3 5.5 98 0.1 NNW 13 15 7 8 - - 0.0
26/09:30pm 6.2 3.6 5.9 98 0.1 N 9 13 5 7 - - 0.0
26/09:00pm 6.4 3.4 6.0 97 0.2 NNW 11 15 6 8 - - 0.0
26/08:30pm 6.3 4.0 5.9 97 0.2 NNW 7 9 4 5 - - 0.0
26/08:00pm 6.4 3.7 5.7 95 0.3 NW 9 11 5 6 - - 0.0
26/07:30pm 6.9 4.2 5.8 93 0.5 N 9 9 5 5 - - 0.0
26/07:00pm 7.5 5.3 6.1 91 0.6 NNW 7 9 4 5 - - 0.0
26/06:30pm 8.2 5.8 7.1 93 0.5 NW 9 13 5 7 - - 0.0
26/06:00pm 6.6 3.9 5.4 92 0.5 NNW 9 11 5 6 - - 0.0
26/05:30pm 7.0 4.3 5.5 90 0.7 NNW 9 11 5 6 - - 0.0
26/05:00pm 7.8 4.9 4.9 82 1.3 NNW 9 11 5 6 - - 0.0
26/04:30pm 10.6 8.1 6.7 77 1.9 NNW 9 13 5 7 - - 0.0
26/04:00pm 11.5 8.9 7.8 78 1.8 NNW 11 15 6 8 - - 0.0
26/03:30pm 11.1 8.5 7.6 79 1.7 NNW 11 13 6 7 - - 0.0
26/03:00pm 11.8 9.3 8.3 79 1.8 NNW 11 15 6 8 - - 0.0
26/02:30pm 11.8 9.4 8.6 81 1.6 NNW 11 13 6 7 - - 0.0
26/02:00pm 10.8 8.0 8.6 86 1.1 NNW 13 13 7 7 - - 0.0
26/01:30pm 10.5 9.0 9.1 91 0.7 NNW 7 9 4 5 - - 0.0
26/01:00pm 9.2 7.7 9.1 99 0.1 NNW 7 11 4 6 - - 0.0
26/12:30pm 8.0 5.8 7.9 99 0.0 NNW 9 13 5 7 - - 0.0
26/12:00pm 7.3 3.8 7.2 99 0.0 NNW 15 17 8 9 - - 0.0
26/11:30am 6.7 3.8 6.6 99 0.0 NNW 11 13 6 7 - - 0.0
26/11:00am 6.7 4.2 6.6 99 0.0 NNW 9 11 5 6 - - 0.0
26/10:30am 4.9 2.4 4.8 99 0.0 NW 7 9 4 5 - - 0.0
26/10:00am 4.4 2.4 4.3 99 0.0 NNW 4 9 2 5 - - 0.0
26/09:30am 4.2 1.2 4.1 99 0.0 NNW 9 11 5 6 - - 0.0
26/09:00am 3.7 0.6 3.6 99 0.0 NW 9 13 5 7 - - 0.4
26/08:30am 2.9 0.2 2.8 99 0.0 NNW 6 9 3 5 - - 0.4
26/08:00am 2.3 0.7 2.2 99 0.0 CALM 0 0 0 0 - - 0.4
26/07:30am 3.0 0.3 2.9 99 0.0 NNW 6 9 3 5 - - 0.4
26/07:00am 3.0 0.2 2.9 99 0.0 NNW 7 9 4 5 - - 0.4
26/06:30am 3.4 0.8 3.3 99 0.0 NW 6 9 3 5 - - 0.4
26/06:00am 2.9 0.6 2.8 99 0.0 NW 4 7 2 4 - - 0.4
26/05:30am 3.3 0.5 3.2 99 0.0 NNW 7 9 4 5 - - 0.0
26/05:00am 5.3 4.2 5.2 99 0.0 CALM 0 0 0 0 - - 0.0
26/04:30am 5.4 4.3 5.3 99 0.0 CALM 0 0 0 0 - - 0.0
26/04:00am 5.9 4.9 5.8 99 0.0 CALM 0 0 0 0 - - 0.0
26/03:30am 5.7 4.7 5.6 99 0.0 CALM 0 0 0 0 - - 0.0
26/03:00am 5.7 4.7 5.6 99 0.0 CALM 0 0 0 0 - - 0.0
26/02:30am 5.2 2.7 4.9 98 0.1 NNW 7 9 4 5 - - 0.0
26/02:00am 6.1 4.8 6.0 99 0.0 WSW 2 7 1 4 - - 0.0
26/01:30am 6.2 4.2 6.1 99 0.0 SW 6 7 3 4 - - 0.0
26/01:00am 6.6 4.5 6.5 99 0.0 S 7 9 4 5 - - 0.0
26/12:30am 6.1 3.1 6.0 99 0.0 SE 11 13 6 7 - - 0.0
26/12:00am 6.2 3.9 5.8 97 0.2 SSE 7 11 4 6 - - 0.0
 
Date/Time
EST
Temp
°C
App
Temp
°C
Dew
Point
Rel
Hum
%
Delta-T
°C
Wind Press
QNH
hPa
Press
MSL
hPa
Rain
since 9 am
mm
Dir
 
Spd
km/h
Gust
km/h
Spd
kts
Gust
kts
25/11:30pm 6.8 4.6 6.4 97 0.2 SSE 7 7 4 4 - - 0.0
25/11:00pm 6.3 2.9 5.7 96 0.3 E 13 15 7 8 - - 0.0
25/10:30pm 7.3 4.8 6.6 95 0.3 S 9 11 5 6 - - 0.0
25/10:00pm 7.2 4.6 6.1 93 0.5 SE 9 11 5 6 - - 0.0
25/09:30pm 8.6 7.2 7.2 91 0.7 S 4 7 2 4 - - 0.0
25/09:00pm 7.5 4.6 6.6 94 0.4 SE 11 13 6 7 - - 0.0
25/08:30pm 7.7 5.2 6.6 93 0.5 S 9 11 5 6 - - 0.0

Other Formats:

Comma delimited format used in spreadsheet applications
http://www.bom.gov.au/fwo/IDT60801/IDT60801.95958.axf

JavaScript Object Notation format (JSON) in row-major order
http://www.bom.gov.au/fwo/IDT60801/IDT60801.95958.json